Time;durP1;ratioP1;P1;durP2;ratioP2;P2;SDS_P1;SDS_P2;PMS_P1;PMS_P2;Temp;Humidity;BMP_temperature;BMP_pressure;BME280_temperature;BME280_humidity;BME280_pressure;Samples;Min_cycle;Max_cycle;Signal;HPM_P1;HPM_P2
2024/01/06 00:02:15;;;;;;;;;15.00;10.75;;;;;9.59;62.26;100380.09;4975987;28;45520;-67
2024/01/06 00:04:41;;;;;;;;;10.25;10.25;;;;;9.54;62.42;100383.56;4976034;28;45498;-66
2024/01/06 00:07:07;;;;;;;;;13.00;10.00;;;;;9.46;62.43;100377.44;4972120;28;46550;-65
2024/01/06 00:09:33;;;;;;;;;12.00;11.25;;;;;9.45;62.65;100367.88;4972641;28;45471;-66
2024/01/06 00:11:58;;;;;;;;;15.25;10.50;;;;;9.36;62.84;100356.56;4972519;28;47822;-66
2024/01/06 00:14:24;;;;;;;;;23.50;14.50;;;;;9.45;62.51;100367.00;4973709;28;45580;-66
2024/01/06 00:16:49;;;;;;;;;25.50;17.50;;;;;9.48;62.41;100367.88;4973397;28;45794;-66
2024/01/06 00:19:17;;;;;;;;;17.25;15.25;;;;;9.45;63.10;100364.41;4973586;28;45529;-66
2024/01/06 00:21:43;;;;;;;;;15.50;14.00;;;;;9.59;62.91;100380.97;4969202;28;47622;-66
2024/01/06 00:24:09;;;;;;;;;14.25;12.00;;;;;9.62;62.60;100380.97;4972571;28;45589;-67
2024/01/06 00:26:34;;;;;;;;;18.50;13.50;;;;;9.59;62.54;100369.66;4973270;28;45486;-65
2024/01/06 00:29:00;;;;;;;;;12.00;10.50;;;;;9.71;62.06;100385.31;4975115;28;45517;-65
2024/01/06 00:31:26;;;;;;;;;16.25;11.50;;;;;9.74;62.00;100382.69;4973359;28;45473;-66
2024/01/06 00:33:51;;;;;;;;;19.75;13.00;;;;;9.76;62.27;100380.97;4975258;28;45506;-67
2024/01/06 00:36:17;;;;;;;;;15.50;13.00;;;;;9.79;62.42;100385.31;4974047;28;45481;-65
2024/01/06 00:38:43;;;;;;;;;17.00;13.00;;;;;9.79;62.11;100391.41;4966943;28;45486;-66
2024/01/06 00:41:08;;;;;;;;;9.00;6.75;;;;;9.80;62.11;100387.03;4975106;28;47285;-66
2024/01/06 00:43:34;;;;;;;;;12.75;12.50;;;;;9.85;61.87;100393.19;4975732;28;45453;-67
2024/01/06 00:45:59;;;;;;;;;15.75;12.25;;;;;9.83;61.92;100392.31;4976577;28;45261;-67
2024/01/06 00:48:25;;;;;;;;;10.00;9.75;;;;;9.85;62.03;100388.81;4975465;28;45424;-66
2024/01/06 00:50:50;;;;;;;;;13.50;11.00;;;;;9.85;62.11;100393.19;4966976;28;47438;-66
2024/01/06 00:53:16;;;;;;;;;14.50;11.00;;;;;9.77;61.92;100385.31;4975323;28;45480;-66
2024/01/06 00:55:41;;;;;;;;;14.00;12.00;;;;;9.86;62.25;100394.91;4976487;28;45398;-67
2024/01/06 00:58:08;;;;;;;;;12.75;10.50;;;;;9.81;61.98;100394.03;4976216;28;45336;-65
2024/01/06 01:00:34;;;;;;;;;11.75;10.25;;;;;9.91;61.83;100399.25;4975400;28;45547;-65
2024/01/06 01:02:59;;;;;;;;;10.50;9.00;;;;;9.84;62.02;100397.50;4975244;28;45387;-64
2024/01/06 01:05:25;;;;;;;;;13.00;10.25;;;;;9.83;62.76;100405.38;4978041;28;45507;-67
2024/01/06 01:07:50;;;;;;;;;9.00;8.50;;;;;9.74;62.45;100401.88;4979837;28;45538;-65
2024/01/06 01:10:16;;;;;;;;;19.00;13.50;;;;;9.72;62.64;100400.13;4979963;28;46552;-65
2024/01/06 01:12:41;;;;;;;;;16.25;14.50;;;;;9.84;62.50;100417.56;4980029;28;45399;-64
2024/01/06 01:15:07;;;;;;;;;20.50;17.25;;;;;9.80;62.32;100401.03;4980130;28;45292;-64
2024/01/06 01:17:33;;;;;;;;;21.00;17.00;;;;;9.75;62.20;100395.78;4980384;28;45504;-64
2024/01/06 01:19:58;;;;;;;;;2.00;0.25;;;;;9.79;62.08;100401.00;4978244;28;48014;-64
2024/01/06 01:22:24;;;;;;;;;17.50;15.75;;;;;9.78;61.95;100402.75;4980599;28;45474;-65
2024/01/06 01:24:50;;;;;;;;;17.25;14.50;;;;;9.83;62.17;100410.59;4980062;28;45367;-65
2024/01/06 01:27:15;;;;;;;;;18.75;16.50;;;;;9.75;62.10;100403.63;4978934;28;45544;-65
2024/01/06 01:29:41;;;;;;;;;17.75;15.75;;;;;9.79;62.24;100416.69;4981039;28;46566;-66
2024/01/06 01:32:06;;;;;;;;;17.75;15.00;;;;;9.75;62.20;100414.09;4980225;28;45213;-67
2024/01/06 01:34:32;;;;;;;;;12.50;11.25;;;;;9.69;62.38;100413.22;4980815;28;45451;-64
2024/01/06 01:36:57;;;;;;;;;18.75;13.50;;;;;9.71;62.36;100428.03;4979936;28;45406;-65
2024/01/06 01:39:23;;;;;;;;;14.75;12.25;;;;;9.69;62.23;100423.69;4978791;28;46569;-67
2024/01/06 01:41:48;;;;;;;;;15.25;10.25;;;;;9.64;62.28;100428.03;4978203;28;45349;-66
2024/01/06 01:44:15;;;;;;;;;10.25;10.25;;;;;9.66;62.33;100431.53;4979582;28;45429;-65
2024/01/06 01:46:45;;;;;;;;;12.50;9.50;;;;;9.56;62.68;100420.16;4979035;28;45410;-68
2024/01/06 01:49:11;;;;;;;;;12.25;10.00;;;;;9.59;62.50;100435.88;4980401;28;45477;-67
2024/01/06 01:51:40;;;;;;;;;9.75;9.75;;;;;9.57;62.76;100440.22;4972836;28;45517;-65
2024/01/06 01:54:07;;;;;;;;;13.50;10.00;;;;;9.54;62.44;100438.47;4979256;28;45419;-66
2024/01/06 01:56:33;;;;;;;;;11.00;9.50;;;;;9.42;63.05;100438.47;4981212;28;45415;-65
2024/01/06 01:59:03;;;;;;;;;15.50;11.50;;;;;9.27;63.09;100443.66;4978899;28;46183;-65
2024/01/06 02:01:29;;;;;;;;;12.25;11.50;;;;;9.20;63.34;100442.75;4979608;28;45469;-65
2024/01/06 02:03:55;;;;;;;;;9.75;8.75;;;;;9.14;63.87;100453.19;4980729;28;45582;-66
2024/01/06 02:06:20;;;;;;;;;11.50;8.25;;;;;9.03;63.57;100445.31;4979650;28;45658;-66
2024/01/06 02:08:46;;;;;;;;;10.00;10.00;;;;;8.99;63.97;100440.06;4979163;28;45577;-66
2024/01/06 02:11:11;;;;;;;;;13.75;7.25;;;;;9.06;64.18;100460.13;4978243;28;45630;-64
2024/01/06 02:13:38;;;;;;;;;14.00;9.00;;;;;8.97;64.69;100452.25;4979683;28;45537;-64
2024/01/06 02:16:04;;;;;;;;;11.00;9.00;;;;;8.92;64.56;100454.84;4979851;28;45406;-65
2024/01/06 02:18:33;;;;;;;;;10.25;10.25;;;;;8.93;64.72;100459.22;4979278;28;45392;-67
2024/01/06 02:21:01;;;;;;;;;15.50;10.75;;;;;8.87;64.63;100454.84;4979901;28;45550;-66
2024/01/06 02:23:30;;;;;;;;;14.50;9.50;;;;;8.93;65.06;100458.34;4979798;28;45512;-66
2024/01/06 02:25:56;;;;;;;;;11.75;9.00;;;;;8.83;64.76;100442.63;4979728;28;45599;-64
2024/01/06 02:28:22;;;;;;;;;11.75;9.00;;;;;8.89;65.19;100460.06;4979248;28;45590;-65
2024/01/06 02:30:48;;;;;;;;;15.00;11.50;;;;;8.84;64.77;100465.25;4980896;28;45292;-65
2024/01/06 02:33:14;;;;;;;;;11.00;10.25;;;;;8.88;64.87;100474.84;4979923;28;45371;-65
2024/01/06 02:35:40;;;;;;;;;11.00;11.00;;;;;8.84;65.03;100478.31;4978096;28;45415;-65
2024/01/06 02:38:06;;;;;;;;;10.50;8.75;;;;;8.83;65.22;100465.28;4979287;28;46534;-65
2024/01/06 02:40:32;;;;;;;;;12.25;10.00;;;;;8.94;65.28;100480.97;4979220;28;45534;-66
2024/01/06 02:42:58;;;;;;;;;12.75;10.25;;;;;8.99;64.83;100481.84;4978358;28;45649;-65
2024/01/06 02:45:24;;;;;;;;;15.50;13.75;;;;;9.03;64.56;100475.78;4981003;28;45376;-66
2024/01/06 02:47:49;;;;;;;;;15.50;14.00;;;;;8.98;64.74;100454.88;4978985;28;45366;-65
2024/01/06 02:50:15;;;;;;;;;9.25;9.25;;;;;9.13;64.96;100485.41;4979034;28;45528;-65
2024/01/06 02:52:41;;;;;;;;;16.50;9.25;;;;;9.17;64.39;100481.94;4979163;28;45396;-65
2024/01/06 02:55:06;;;;;;;;;15.00;10.75;;;;;9.18;64.44;100488.91;4978068;28;45478;-66
2024/01/06 02:57:32;;;;;;;;;15.25;12.75;;;;;9.19;64.68;100488.06;4979939;28;45486;-65
2024/01/06 02:59:57;;;;;;;;;13.75;13.50;;;;;9.19;64.65;100476.72;4979947;28;45540;-64
2024/01/06 03:02:23;;;;;;;;;10.50;9.75;;;;;9.29;64.21;100496.78;4979018;28;45392;-65
2024/01/06 03:04:49;;;;;;;;;9.00;9.00;;;;;9.28;63.78;100492.44;4980136;28;45494;-65
2024/01/06 03:07:14;;;;;;;;;11.50;11.50;;;;;9.33;63.79;100503.78;4979828;28;45885;-65
2024/01/06 03:09:40;;;;;;;;;14.75;12.25;;;;;9.34;64.14;100511.59;4979698;28;45302;-66
2024/01/06 03:12:07;;;;;;;;;15.00;13.25;;;;;9.14;64.14;100468.88;4977578;28;45329;-65
2024/01/06 03:14:34;;;;;;;;;14.25;10.00;;;;;9.36;64.13;100502.91;4979872;28;45507;-64
2024/01/06 03:17:00;;;;;;;;;12.50;12.00;;;;;9.32;63.87;100499.41;4979053;28;45542;-65
2024/01/06 03:19:27;;;;;;;;;12.50;9.75;;;;;9.38;63.61;100515.13;4978450;28;45288;-66
2024/01/06 03:21:53;;;;;;;;;9.75;9.75;;;;;9.37;63.80;100512.50;4978718;28;45502;-66
2024/01/06 03:24:19;;;;;;;;;14.25;14.25;;;;;9.38;63.74;100519.47;4978893;28;45470;-65
2024/01/06 03:26:45;;;;;;;;;18.00;14.00;;;;;9.37;63.65;100515.09;4978035;28;46183;-65
2024/01/06 03:29:10;;;;;;;;;14.25;12.25;;;;;9.34;64.37;100503.78;4977689;28;46343;-66
2024/01/06 03:31:36;;;;;;;;;16.50;14.25;;;;;9.29;63.79;100505.50;4961218;28;45397;-66
2024/01/06 03:34:01;;;;;;;;;12.50;10.00;;;;;9.33;64.63;100516.84;4980090;28;45400;-66
2024/01/06 03:36:27;;;;;;;;;12.50;11.25;;;;;9.29;64.11;100517.69;4979550;28;46005;-64
2024/01/06 03:38:52;;;;;;;;;11.50;11.00;;;;;9.32;64.30;100518.59;4978137;28;45485;-64
2024/01/06 03:41:18;;;;;;;;;14.00;10.25;;;;;9.25;64.04;100505.47;4978404;28;45450;-65
2024/01/06 03:43:43;;;;;;;;;12.00;12.00;;;;;9.37;64.08;100517.72;4978313;28;45451;-65
2024/01/06 03:46:09;;;;;;;;;15.00;15.00;;;;;9.34;63.63;100514.22;4978229;28;45959;-65
2024/01/06 03:48:35;;;;;;;;;15.25;13.50;;;;;9.38;64.49;100520.34;4978469;28;45309;-67
2024/01/06 03:51:01;;;;;;;;;17.25;14.75;;;;;9.37;63.75;100522.94;4978229;28;45456;-65
2024/01/06 03:53:27;;;;;;;;;14.75;12.00;;;;;9.37;64.14;100536.00;4979881;28;45307;-66
2024/01/06 03:55:52;;;;;;;;;14.50;12.75;;;;;9.37;63.76;100530.78;4977159;28;46659;-66
2024/01/06 03:58:18;;;;;;;;;14.50;12.50;;;;;9.36;64.11;100529.91;4977728;28;45426;-64
2024/01/06 04:00:43;;;;;;;;;12.25;10.25;;;;;9.31;64.26;100526.44;4977761;28;45566;-65
2024/01/06 04:03:09;;;;;;;;;17.50;14.00;;;;;9.42;63.76;100547.34;4976729;28;45370;-65
2024/01/06 04:05:34;;;;;;;;;14.75;13.25;;;;;9.40;64.29;100538.66;4978009;28;46163;-65
2024/01/06 04:08:00;;;;;;;;;14.00;13.50;;;;;9.44;63.92;100537.78;4978830;28;45496;-65
2024/01/06 04:10:26;;;;;;;;;13.00;13.00;;;;;9.38;63.97;100529.94;4978120;28;45460;-66
2024/01/06 04:12:51;;;;;;;;;20.50;13.50;;;;;9.44;64.02;100545.63;4976567;28;45479;-65
2024/01/06 04:15:17;;;;;;;;;13.50;12.00;;;;;9.45;63.75;100542.16;4977474;28;46162;-65
2024/01/06 04:17:42;;;;;;;;;17.25;13.25;;;;;9.38;64.33;100541.25;4977569;28;45474;-66
2024/01/06 04:20:11;;;;;;;;;13.00;12.25;;;;;9.40;63.95;100546.50;4977587;28;46158;-65
2024/01/06 04:22:36;;;;;;;;;13.50;12.25;;;;;9.41;63.62;100545.63;4978114;28;45467;-67
2024/01/06 04:25:02;;;;;;;;;13.50;13.00;;;;;9.44;63.96;100550.84;4977362;28;46216;-64
2024/01/06 04:27:27;;;;;;;;;13.25;13.00;;;;;9.45;64.32;100557.84;4975895;28;45474;-66
2024/01/06 04:29:53;;;;;;;;;15.25;13.50;;;;;9.42;63.93;100547.34;4976413;28;45752;-65
2024/01/06 04:32:19;;;;;;;;;13.75;12.50;;;;;9.45;63.83;100557.84;4977864;28;45496;-65
2024/01/06 04:34:44;;;;;;;;;19.25;13.25;;;;;9.39;63.96;100543.00;4978844;28;45410;-65
2024/01/06 04:37:10;;;;;;;;;13.00;12.00;;;;;9.44;63.30;100545.63;4978238;28;45430;-66
2024/01/06 04:39:35;;;;;;;;;13.50;12.50;;;;;9.44;63.60;100553.47;4976658;28;45419;-65
2024/01/06 04:42:01;;;;;;;;;17.75;12.25;;;;;9.45;64.04;100556.09;4978014;28;45395;-65
2024/01/06 04:44:26;;;;;;;;;10.50;10.50;;;;;9.49;63.61;100551.75;4978766;28;45872;-65
2024/01/06 04:46:52;;;;;;;;;14.25;13.00;;;;;9.46;63.99;100546.50;4976657;28;45395;-65
2024/01/06 04:49:17;;;;;;;;;13.00;11.50;;;;;9.55;63.80;100564.84;4976000;28;45671;-66
2024/01/06 04:51:43;;;;;;;;;13.50;11.25;;;;;9.50;63.85;100558.72;4978324;28;45395;-65
2024/01/06 04:54:08;;;;;;;;;18.00;13.75;;;;;9.47;63.73;100556.13;4976627;28;45542;-66
2024/01/06 04:56:34;;;;;;;;;13.50;13.25;;;;;9.55;63.80;100570.06;4977405;28;45362;-65
2024/01/06 04:58:59;;;;;;;;;15.25;15.25;;;;;9.55;63.88;100570.94;4977080;28;45494;-65
2024/01/06 05:01:25;;;;;;;;;18.25;15.25;;;;;9.52;63.75;100567.47;4977084;28;45272;-65
2024/01/06 05:03:50;;;;;;;;;14.50;14.50;;;;;9.55;63.60;100576.16;4976596;28;46157;-64
2024/01/06 05:06:16;;;;;;;;;14.75;14.50;;;;;9.55;63.97;100573.56;4977849;28;45493;-64
2024/01/06 05:08:44;;;;;;;;;17.50;13.50;;;;;9.57;63.69;100572.72;4977681;28;45347;-65
2024/01/06 05:11:11;;;;;;;;;14.75;14.75;;;;;9.47;63.30;100563.97;4977139;28;45468;-64
2024/01/06 05:13:37;;;;;;;;;16.00;14.25;;;;;9.53;63.29;100571.81;4976181;28;45740;-64
2024/01/06 05:16:02;;;;;;;;;14.75;14.50;;;;;9.55;63.93;100576.16;4976744;28;45421;-64
2024/01/06 05:18:28;;;;;;;;;15.75;12.25;;;;;9.59;63.82;100590.16;4975545;28;45475;-63
2024/01/06 05:20:54;;;;;;;;;14.50;14.50;;;;;9.59;63.60;100590.16;4977040;28;45463;-65
2024/01/06 05:23:20;;;;;;;;;17.25;14.50;;;;;9.50;63.59;100582.25;4977314;28;46123;-65
2024/01/06 05:25:45;;;;;;;;;16.50;14.25;;;;;9.46;63.55;100575.28;4975778;28;45374;-64
2024/01/06 05:28:11;;;;;;;;;18.75;14.50;;;;;9.47;63.51;100567.44;4975442;28;45419;-64
2024/01/06 05:30:36;;;;;;;;;19.00;16.75;;;;;9.49;63.93;100575.28;4975619;28;45479;-64
2024/01/06 05:33:03;;;;;;;;;14.00;13.25;;;;;9.54;63.84;100584.03;4976759;28;45487;-65
2024/01/06 05:35:29;;;;;;;;;19.75;16.25;;;;;9.57;63.62;100583.16;4976140;28;45360;-66
2024/01/06 05:37:54;;;;;;;;;20.00;15.75;;;;;9.51;63.40;100576.16;4975179;28;45498;-65
2024/01/06 05:40:20;;;;;;;;;19.00;15.00;;;;;9.56;63.32;100587.50;4974879;28;45565;-65
2024/01/06 05:42:45;;;;;;;;;17.50;15.25;;;;;9.56;63.68;100592.72;4976097;28;46203;-65
2024/01/06 05:45:12;;;;;;;;;16.25;15.25;;;;;9.54;63.13;100592.75;4974421;28;45630;-65
2024/01/06 05:47:38;;;;;;;;;20.25;14.75;;;;;9.52;63.76;100591.84;4976790;28;45519;-64
2024/01/06 05:50:04;;;;;;;;;18.00;13.00;;;;;9.38;63.41;100571.75;4977651;28;45435;-65
2024/01/06 05:52:30;;;;;;;;;22.25;16.50;;;;;9.45;63.61;100600.53;4973522;28;46716;-65
2024/01/06 05:54:55;;;;;;;;;18.00;16.75;;;;;9.43;63.59;100598.78;4980227;28;45430;-65
2024/01/06 05:57:21;;;;;;;;;18.25;17.75;;;;;9.38;63.72;100600.50;4979793;28;45503;-64
2024/01/06 05:59:46;;;;;;;;;19.75;15.75;;;;;9.34;63.61;100602.22;4981364;28;45391;-64
2024/01/06 06:02:12;;;;;;;;;20.50;17.50;;;;;9.33;63.44;100608.34;4978920;28;46732;-64
2024/01/06 06:04:38;;;;;;;;;18.75;14.50;;;;;9.28;63.76;100610.06;4980622;28;45419;-65
2024/01/06 06:07:03;;;;;;;;;16.75;14.00;;;;;9.28;63.11;100616.16;4967599;28;45475;-63
2024/01/06 06:09:29;;;;;;;;;17.50;14.50;;;;;9.21;63.84;100622.22;4980025;28;45526;-65
2024/01/06 06:11:54;;;;;;;;;16.25;14.25;;;;;9.19;63.37;100623.06;4979543;28;45666;-65
2024/01/06 06:14:20;;;;;;;;;15.50;12.75;;;;;9.21;63.37;100634.41;4978057;28;45425;-65
2024/01/06 06:16:47;;;;;;;;;15.50;10.25;;;;;9.22;63.32;100642.22;4978948;28;46215;-65
2024/01/06 06:19:13;;;;;;;;;13.75;12.75;;;;;9.16;63.23;100638.69;4979318;28;45465;-65
2024/01/06 06:21:38;;;;;;;;;9.75;9.75;;;;;9.19;63.41;100647.44;4978034;28;46367;-65
2024/01/06 06:24:04;;;;;;;;;13.00;11.25;;;;;9.18;63.13;100658.75;4979599;28;45500;-65
2024/01/06 06:26:30;;;;;;;;;11.50;9.00;;;;;9.16;63.18;100659.59;4980741;28;45444;-65
2024/01/06 06:28:56;;;;;;;;;15.25;12.00;;;;;9.21;63.46;100664.03;4979700;28;45581;-65
2024/01/06 06:31:21;;;;;;;;;15.50;10.50;;;;;9.15;63.15;100655.25;4978865;28;45953;-66
2024/01/06 06:33:47;;;;;;;;;12.25;9.00;;;;;9.12;62.95;100651.75;4978986;28;45405;-64
2024/01/06 06:36:12;;;;;;;;;8.25;6.75;;;;;9.21;62.64;100665.75;4979531;28;45320;-65
2024/01/06 06:38:38;;;;;;;;;7.75;2.75;;;;;9.18;62.57;100658.75;4980931;28;45476;-65
2024/01/06 06:41:03;;;;;;;;;12.75;10.75;;;;;9.19;62.12;100670.09;4977952;28;46027;-65
2024/01/06 06:43:29;;;;;;;;;8.00;8.00;;;;;9.20;62.08;100666.59;4979136;28;45583;-65
2024/01/06 06:45:57;;;;;;;;;11.50;8.25;;;;;9.24;61.85;100673.63;4978295;28;45421;-66
2024/01/06 06:48:23;;;;;;;;;9.50;9.00;;;;;9.24;62.13;100678.84;4978027;28;45349;-65
2024/01/06 06:50:48;;;;;;;;;11.00;7.75;;;;;9.28;61.89;100683.22;4979983;28;45542;-65
2024/01/06 06:53:14;;;;;;;;;7.75;7.75;;;;;9.23;62.21;100683.19;4978218;28;45366;-66
2024/01/06 06:55:40;;;;;;;;;7.75;6.00;;;;;9.31;61.84;100696.31;4979091;28;45354;-65
2024/01/06 06:58:06;;;;;;;;;8.25;7.25;;;;;9.31;61.96;100701.53;4980136;28;45379;-66
2024/01/06 07:00:32;;;;;;;;;7.25;5.25;;;;;9.29;61.83;100698.91;4980098;28;45606;-65
2024/01/06 07:02:58;;;;;;;;;7.25;6.75;;;;;9.21;62.13;100687.53;4961784;28;45534;-66
2024/01/06 07:05:24;;;;;;;;;14.50;8.75;;;;;9.32;62.01;100711.13;4979844;28;45575;-66
2024/01/06 07:07:49;;;;;;;;;8.25;7.75;;;;;9.32;61.77;100703.28;4978731;28;45974;-66
2024/01/06 07:10:15;;;;;;;;;9.00;7.75;;;;;9.37;61.83;100708.53;4977533;28;46747;-65
2024/01/06 07:12:40;;;;;;;;;16.75;8.50;;;;;9.36;62.06;100720.75;4977420;28;45336;-66
2024/01/06 07:15:08;;;;;;;;;9.00;7.75;;;;;9.33;62.05;100718.97;4978784;28;45409;-66
2024/01/06 07:17:33;;;;;;;;;8.00;6.00;;;;;9.30;61.69;100718.97;4958195;28;45428;-66
2024/01/06 07:19:59;;;;;;;;;12.00;6.75;;;;;9.36;61.90;100735.56;4973320;28;46154;-64
2024/01/06 07:22:24;;;;;;;;;11.25;8.50;;;;;9.19;61.47;100710.16;4978679;28;45460;-65
2024/01/06 07:24:50;;;;;;;;;8.50;7.75;;;;;9.32;61.40;100735.53;4978641;28;45376;-66
2024/01/06 07:27:15;;;;;;;;;6.00;6.00;;;;;9.29;61.56;100740.72;4977359;28;45659;-65
2024/01/06 07:29:41;;;;;;;;;7.50;7.25;;;;;9.24;61.31;100729.38;4978511;28;46293;-65
2024/01/06 07:32:06;;;;;;;;;9.75;8.50;;;;;9.19;61.35;100727.59;4978142;28;45545;-65
2024/01/06 07:34:32;;;;;;;;;13.00;9.25;;;;;9.31;61.23;100754.69;4977106;28;45940;-64
2024/01/06 07:36:58;;;;;;;;;11.50;9.25;;;;;9.29;61.78;100758.16;4976727;28;45490;-65
2024/01/06 07:39:24;;;;;;;;;15.75;10.50;;;;;9.31;61.55;100764.28;4977990;28;45486;-65
2024/01/06 07:41:50;;;;;;;;;13.25;11.00;;;;;9.32;61.58;100761.69;4978084;28;45376;-64
2024/01/06 07:44:16;;;;;;;;;10.50;10.50;;;;;9.31;61.73;100767.75;4979523;28;45480;-65
2024/01/06 07:46:42;;;;;;;;;9.25;7.50;;;;;9.30;61.80;100776.47;4976276;28;45416;-65
2024/01/06 07:49:07;;;;;;;;;10.00;8.00;;;;;9.31;61.90;100769.50;4976159;28;46505;-65
2024/01/06 07:51:34;;;;;;;;;9.00;7.75;;;;;9.34;61.87;100764.28;4977953;28;45367;-65
2024/01/06 07:54:01;;;;;;;;;9.75;6.50;;;;;9.26;61.58;100769.47;4978001;28;45466;-65
2024/01/06 07:56:26;;;;;;;;;9.50;7.50;;;;;9.05;61.66;100727.47;4977885;28;45328;-66
2024/01/06 07:58:52;;;;;;;;;10.75;7.75;;;;;9.29;61.71;100774.69;4977095;28;46585;-65
2024/01/06 08:01:18;;;;;;;;;5.25;5.25;;;;;9.22;61.45;100772.03;4978281;28;45793;-66
2024/01/06 08:03:44;;;;;;;;;7.50;6.50;;;;;9.28;61.26;100787.78;4978472;28;45536;-66
2024/01/06 08:06:10;;;;;;;;;10.00;6.00;;;;;9.26;61.56;100786.88;4979350;28;45521;-65
2024/01/06 08:08:36;;;;;;;;;10.25;8.50;;;;;9.22;61.65;100785.97;4977921;28;45497;-65
2024/01/06 08:11:01;;;;;;;;;8.50;7.25;;;;;9.29;63.24;100789.50;4977695;28;45390;-66
2024/01/06 08:13:27;;;;;;;;;10.75;8.50;;;;;9.32;61.06;100794.75;4977465;28;45403;-66
2024/01/06 08:15:53;;;;;;;;;9.00;7.00;;;;;9.24;61.47;100789.47;4976614;28;45467;-65
2024/01/06 08:18:18;;;;;;;;;7.50;7.50;;;;;9.27;61.12;100794.72;4977774;28;45426;-64
2024/01/06 08:20:44;;;;;;;;;11.00;6.00;;;;;9.27;60.67;100812.16;4976078;28;45431;-64
2024/01/06 08:23:10;;;;;;;;;10.00;7.75;;;;;9.28;60.48;100808.69;4977054;28;45379;-64
2024/01/06 08:25:36;;;;;;;;;8.75;6.75;;;;;9.17;60.82;100787.66;4978100;28;45280;-66
2024/01/06 08:28:01;;;;;;;;;12.50;7.50;;;;;9.32;60.49;100824.41;4976882;28;47560;-65
2024/01/06 08:30:27;;;;;;;;;8.25;8.00;;;;;9.34;61.05;100817.44;4977417;28;45331;-66
2024/01/06 08:32:53;;;;;;;;;12.50;7.75;;;;;9.35;60.61;100818.31;4977372;28;45517;-66
2024/01/06 08:35:19;;;;;;;;;11.00;7.50;;;;;9.31;60.58;100817.41;4977986;28;45363;-64
2024/01/06 08:37:45;;;;;;;;;9.50;6.00;;;;;9.33;60.53;100823.53;4975581;28;47652;-66
2024/01/06 08:40:11;;;;;;;;;12.25;8.00;;;;;9.34;60.21;100825.28;4976773;28;45616;-65
2024/01/06 08:42:37;;;;;;;;;9.75;9.50;;;;;9.37;60.02;100827.03;4976480;28;45446;-66
2024/01/06 08:45:04;;;;;;;;;10.75;9.75;;;;;9.37;59.91;100834.88;4977749;28;45471;-66
2024/01/06 08:47:30;;;;;;;;;12.75;10.25;;;;;9.37;59.66;100828.78;4977613;28;45447;-64
2024/01/06 08:49:56;;;;;;;;;8.00;6.25;;;;;9.37;59.72;100834.00;4976344;28;45409;-66
2024/01/06 08:52:21;;;;;;;;;13.25;10.00;;;;;9.41;59.26;100838.41;4977698;28;45432;-65
2024/01/06 08:54:47;;;;;;;;;10.75;8.25;;;;;9.44;59.21;100841.03;4978086;28;45315;-65
2024/01/06 08:57:12;;;;;;;;;8.25;8.25;;;;;9.44;58.79;100841.91;4978349;28;46055;-65
2024/01/06 08:59:39;;;;;;;;;8.50;8.00;;;;;9.44;59.14;100836.69;4978075;28;45476;-65
2024/01/06 09:02:05;;;;;;;;;9.75;7.50;;;;;9.43;59.44;100832.31;4975632;28;45569;-66
2024/01/06 09:04:31;;;;;;;;;6.00;6.00;;;;;9.51;59.77;100848.06;4976844;28;45438;-66
2024/01/06 09:06:56;;;;;;;;;8.75;6.50;;;;;9.49;59.01;100837.63;4975482;28;47155;-64
2024/01/06 09:09:23;;;;;;;;;8.25;7.00;;;;;9.56;58.72;100854.19;4978030;28;45467;-66
2024/01/06 09:11:49;;;;;;;;;10.00;8.00;;;;;9.38;59.05;100815.72;4976070;28;45305;-66
2024/01/06 09:14:16;;;;;;;;;6.75;4.00;;;;;9.64;58.95;100851.69;4975995;28;45565;-65
2024/01/06 09:16:41;;;;;;;;;6.00;6.00;;;;;9.59;58.93;100854.25;4977593;28;45576;-66
2024/01/06 09:19:07;;;;;;;;;6.50;5.25;;;;;9.66;58.76;100856.03;4977638;28;45372;-65
2024/01/06 09:21:33;;;;;;;;;6.25;6.25;;;;;9.61;58.98;100855.16;4975846;28;45447;-66
2024/01/06 09:24:00;;;;;;;;;9.25;5.75;;;;;9.72;58.38;100869.16;4975850;28;45677;-65
2024/01/06 09:26:25;;;;;;;;;5.75;4.75;;;;;9.76;58.64;100870.06;4979581;28;46215;-65
2024/01/06 09:28:51;;;;;;;;;7.25;6.00;;;;;9.82;58.44;100869.22;4980332;28;45324;-66
2024/01/06 09:31:16;;;;;;;;;6.00;4.75;;;;;10.22;57.57;100877.34;4970904;28;45349;-65
2024/01/06 09:33:42;;;;;;;;;3.50;3.50;;;;;10.44;56.79;100860.91;4976034;28;45554;-66
2024/01/06 09:36:11;;;;;;;;;6.75;5.00;;;;;10.46;56.08;100868.75;4978452;28;48328;-65
2024/01/06 09:38:37;;;;;;;;;4.75;4.00;;;;;10.44;56.31;100879.25;4979677;28;45300;-65
2024/01/06 09:41:02;;;;;;;;;5.25;5.25;;;;;10.33;55.89;100870.47;4980123;28;45775;-64
2024/01/06 09:43:30;;;;;;;;;10.00;5.50;;;;;10.13;56.19;100847.66;4980239;28;45304;-64
2024/01/06 09:46:04;;;;;;;;;5.00;5.00;;;;;10.31;55.25;100887.91;4979862;28;45494;-63
2024/01/06 09:48:35;;;;;;;;;8.50;7.25;;;;;10.23;55.15;100892.16;4959793;28;45266;-64
2024/01/06 09:51:03;;;;;;;;;6.50;6.50;;;;;10.19;55.16;100894.78;4979501;28;45220;-65
2024/01/06 09:53:37;;;;;;;;;9.75;6.50;;;;;10.12;55.48;100890.38;4980037;28;45568;-64
2024/01/06 09:56:04;;;;;;;;;7.25;4.50;;;;;10.10;55.53;100883.38;4979682;28;46139;-65
2024/01/06 09:58:34;;;;;;;;;9.75;5.00;;;;;10.18;55.29;100898.28;4979765;28;45530;-65
2024/01/06 10:01:01;;;;;;;;;4.00;3.25;;;;;10.16;54.93;100896.50;4979710;28;45564;-65
2024/01/06 10:03:27;;;;;;;;;4.00;3.25;;;;;10.17;55.02;100906.97;4978497;28;45411;-64
2024/01/06 10:05:52;;;;;;;;;4.00;3.75;;;;;10.10;54.56;100892.09;4980912;28;46068;-64
2024/01/06 10:08:18;;;;;;;;;2.00;2.00;;;;;10.16;54.42;100897.38;4979503;28;45453;-65
2024/01/06 10:10:47;;;;;;;;;3.25;3.25;;;;;10.27;54.57;100894.81;4978803;28;45414;-64
2024/01/06 10:13:17;;;;;;;;;3.25;3.00;;;;;10.52;54.32;100889.75;4980757;28;45359;-64
2024/01/06 10:15:42;;;;;;;;;4.75;4.00;;;;;10.66;53.87;100892.44;4981075;28;46497;-65
2024/01/06 10:18:08;;;;;;;;;4.00;4.00;;;;;10.73;54.11;100904.69;4979707;28;45419;-64
2024/01/06 10:20:33;;;;;;;;;3.75;3.50;;;;;10.69;53.88;100909.03;4978564;28;45424;-64
2024/01/06 10:23:05;;;;;;;;;4.00;4.00;;;;;10.65;53.66;100914.25;4979846;28;45627;-64
2024/01/06 10:25:32;;;;;;;;;6.25;5.00;;;;;10.56;53.42;100907.25;4979796;28;46065;-64
2024/01/06 10:28:01;;;;;;;;;9.75;8.00;;;;;10.51;53.97;100914.19;4977904;28;45328;-64
2024/01/06 10:30:27;;;;;;;;;8.75;7.00;;;;;10.50;53.65;100909.81;4979567;28;45466;-65
2024/01/06 10:32:53;;;;;;;;;5.75;5.00;;;;;10.49;53.90;100897.59;4978325;28;45484;-65
2024/01/06 10:35:19;;;;;;;;;4.00;4.00;;;;;10.52;53.74;100919.44;4979275;28;45691;-64
2024/01/06 10:37:45;;;;;;;;;4.75;2.75;;;;;10.50;53.63;100912.44;4977936;28;45490;-63
2024/01/06 10:40:13;;;;;;;;;3.50;2.00;;;;;10.48;53.65;100914.16;4979969;28;45504;-66
2024/01/06 10:42:39;;;;;;;;;4.25;3.50;;;;;10.51;53.55;100920.31;4979793;28;45652;-65
2024/01/06 10:45:13;;;;;;;;;3.50;3.50;;;;;10.51;53.72;100922.03;4978913;28;45370;-64
2024/01/06 10:47:41;;;;;;;;;3.00;3.00;;;;;10.47;53.36;100913.31;4977788;28;45894;-64
2024/01/06 10:50:10;;;;;;;;;3.00;3.00;;;;;10.50;53.66;100925.53;4977954;28;45499;-65
2024/01/06 10:52:37;;;;;;;;;2.50;2.00;;;;;10.45;53.46;100908.94;4978985;28;45371;-65
2024/01/06 10:55:05;;;;;;;;;3.00;3.00;;;;;10.47;53.43;100913.31;4977589;28;45535;-63
2024/01/06 10:57:31;;;;;;;;;3.00;2.50;;;;;10.48;53.51;100911.56;4980047;28;45557;-66
2024/01/06 10:59:58;;;;;;;;;4.50;3.00;;;;;10.46;53.61;100906.28;4978945;28;45516;-64
2024/01/06 11:02:25;;;;;;;;;2.75;2.75;;;;;10.53;53.27;100910.69;4980684;28;45320;-65
2024/01/06 11:04:51;;;;;;;;;1.67;1.33;;;;;10.58;52.69;100923.81;4979922;28;46078;-65
2024/01/06 11:07:23;;;;;;;;;6.00;3.00;;;;;10.60;53.06;100912.47;4978959;28;45297;-66
2024/01/06 11:10:06;;;;;;;;;3.00;3.00;;;;;10.56;53.27;100894.16;4977164;28;45428;-69
2024/01/06 11:12:33;;;;;;;;;3.50;3.25;;;;;10.51;53.32;100888.88;4977537;28;45709;-64
2024/01/06 11:14:59;;;;;;;;;7.50;4.00;;;;;10.68;53.20;100919.50;4977114;28;47168;-65
2024/01/06 11:17:53;;;;;;;;;5.00;3.75;;;;;10.66;53.83;100905.53;4979030;28;45414;-65